Главная страница
METAR-TAF:

METAR-TAF

Аэропорты :

Исламабад, Пакистан

широта: 33-37N, долгота: 073-06E, высота над уровнем моря: 507 м

Текущие метеонаблюдения

Эта сводка был подготовлена 31 минут назад, в 19:00 UTC
Штиль
Температура 13°C
Влажность 72%
Давление 1019 hPa
Видимость: 7000 м

METAR: OPRN 151900Z 00000KT 7000 NSC 13/08 Q1019 NOSIG RMK A3011

Время: 00:31 (19:31 UTC)

Прогноз

Эта сводка был подготовлена 16 часа и 1 минут назад, в 03:30 UTC
Прогноз действительный с 15-го 06 UTC до 16-го 12 UTC
Ветер 10 Узел от западный-юго-западный
Видимость 10 км и более
Нет облачности ниже 1500 м, и нет кучево-дождевой облачности
временами
С 15-го 12 UTC до 15-го 15 UTC
Видимость: 4000 м
мгла
временами
С 16-го 00 UTC до 16-го 04 UTC
Видимость: 3000 м
дымка

TAF: OPRN 150330Z 1506/1612 25010KT CAVOK TEMPO 1512/1515 4000 HZ NSC TEMPO 1600/1604 3000 BR NSC

Метеонаблюдения и прогнозы для более 4000 аэропортов (сводки METAR и TAF).

Имеющиеся станции представлены на карте желтыми и красными точками.

Чтобы увидеть название станции, наведите на нее мышь.

Затем щелкните, чтобы увидеть метеонаблюдения и метеопрогнозы.

Управление картой: чтобы увеличить масштаб, щелкните зеленые кнопки с черным крестиком; чтобы уменьшить масштаб, щелкните зеленую кнопку с тире; для просмотра соседних карт щелкайте зеленые стрелки.


METAR-TAF: